sensor_id;sensor_type;location;lat;lon;timestamp;temperature;humidity
52415;DHT22;38340;52.964;6.086;2022-11-20T00:00:51;-2.50;99.90
52415;DHT22;38340;52.964;6.086;2022-11-20T00:03:16;-2.40;99.90
52415;DHT22;38340;52.964;6.086;2022-11-20T00:05:43;-2.40;99.90
52415;DHT22;38340;52.964;6.086;2022-11-20T00:08:09;-2.40;99.90
52415;DHT22;38340;52.964;6.086;2022-11-20T00:10:41;-2.30;99.90
52415;DHT22;38340;52.964;6.086;2022-11-20T00:13:07;-2.20;99.90
52415;DHT22;38340;52.964;6.086;2022-11-20T00:15:33;-2.20;99.90
52415;DHT22;38340;52.964;6.086;2022-11-20T00:17:59;-2.20;99.90
52415;DHT22;38340;52.964;6.086;2022-11-20T00:20:25;-2.10;99.90
52415;DHT22;38340;52.964;6.086;2022-11-20T00:22:51;-2.10;99.90
52415;DHT22;38340;52.964;6.086;2022-11-20T00:25:17;-2.10;99.90
52415;DHT22;38340;52.964;6.086;2022-11-20T00:27:42;-2.00;99.90
52415;DHT22;38340;52.964;6.086;2022-11-20T00:30:08;-2.00;99.90
52415;DHT22;38340;52.964;6.086;2022-11-20T00:32:34;-1.90;99.90
52415;DHT22;38340;52.964;6.086;2022-11-20T00:35:00;-1.90;99.90
52415;DHT22;38340;52.964;6.086;2022-11-20T00:37:26;-1.80;99.90
52415;DHT22;38340;52.964;6.086;2022-11-20T00:39:51;-1.80;99.90
52415;DHT22;38340;52.964;6.086;2022-11-20T00:42:17;-1.80;99.90
52415;DHT22;38340;52.964;6.086;2022-11-20T00:44:43;-1.70;99.90
52415;DHT22;38340;52.964;6.086;2022-11-20T00:47:09;-1.70;99.90
52415;DHT22;38340;52.964;6.086;2022-11-20T00:49:34;-1.70;99.90
52415;DHT22;38340;52.964;6.086;2022-11-20T00:52:00;-1.60;99.90
52415;DHT22;38340;52.964;6.086;2022-11-20T00:54:26;-1.60;99.90
52415;DHT22;38340;52.964;6.086;2022-11-20T00:56:54;-1.60;99.90
52415;DHT22;38340;52.964;6.086;2022-11-20T00:59:20;-1.50;99.90
52415;DHT22;38340;52.964;6.086;2022-11-20T01:01:46;-1.60;99.90
52415;DHT22;38340;52.964;6.086;2022-11-20T01:04:11;-1.60;99.90
52415;DHT22;38340;52.964;6.086;2022-11-20T01:06:38;-1.60;99.90
52415;DHT22;38340;52.964;6.086;2022-11-20T01:09:14;-1.70;99.90
52415;DHT22;38340;52.964;6.086;2022-11-20T01:11:42;-1.70;99.90
52415;DHT22;38340;52.964;6.086;2022-11-20T01:14:12;-1.80;99.90
52415;DHT22;38340;52.964;6.086;2022-11-20T01:16:39;-1.80;99.90
52415;DHT22;38340;52.964;6.086;2022-11-20T01:19:08;-1.90;99.90
52415;DHT22;38340;52.964;6.086;2022-11-20T01:21:37;-1.90;99.90
52415;DHT22;38340;52.964;6.086;2022-11-20T01:24:04;-1.90;99.90
52415;DHT22;38340;52.964;6.086;2022-11-20T01:26:32;-1.90;99.90
52415;DHT22;38340;52.964;6.086;2022-11-20T01:28:59;-1.80;99.90
52415;DHT22;38340;52.964;6.086;2022-11-20T01:31:34;-1.90;99.90
52415;DHT22;38340;52.964;6.086;2022-11-20T01:34:05;-1.80;99.90
52415;DHT22;38340;52.964;6.086;2022-11-20T01:36:32;-1.90;99.90
52415;DHT22;38340;52.964;6.086;2022-11-20T01:39:01;-1.90;99.90
52415;DHT22;38340;52.964;6.086;2022-11-20T01:41:28;-1.90;99.90
52415;DHT22;38340;52.964;6.086;2022-11-20T01:44:14;-1.80;99.90
52415;DHT22;38340;52.964;6.086;2022-11-20T01:46:47;-1.80;99.90
52415;DHT22;38340;52.964;6.086;2022-11-20T01:49:20;-1.80;99.90
52415;DHT22;38340;52.964;6.086;2022-11-20T01:51:52;-1.80;99.90
52415;DHT22;38340;52.964;6.086;2022-11-20T01:54:27;-1.80;99.90
52415;DHT22;38340;52.964;6.086;2022-11-20T01:56:57;-1.70;99.90
52415;DHT22;38340;52.964;6.086;2022-11-20T01:59:24;-1.80;99.90
52415;DHT22;38340;52.964;6.086;2022-11-20T02:01:51;-1.70;99.90
52415;DHT22;38340;52.964;6.086;2022-11-20T02:04:17;-1.70;99.90
52415;DHT22;38340;52.964;6.086;2022-11-20T02:06:59;-1.70;99.90
52415;DHT22;38340;52.964;6.086;2022-11-20T02:09:26;-1.80;99.90
52415;DHT22;38340;52.964;6.086;2022-11-20T02:11:52;-1.80;99.90
52415;DHT22;38340;52.964;6.086;2022-11-20T02:14:19;-1.70;99.90
52415;DHT22;38340;52.964;6.086;2022-11-20T02:16:48;-1.70;99.90
52415;DHT22;38340;52.964;6.086;2022-11-20T02:19:27;-1.70;99.90
52415;DHT22;38340;52.964;6.086;2022-11-20T02:24:28;-1.70;99.90
52415;DHT22;38340;52.964;6.086;2022-11-20T02:26:57;-1.70;99.90
52415;DHT22;38340;52.964;6.086;2022-11-20T02:29:52;-1.70;99.90
52415;DHT22;38340;52.964;6.086;2022-11-20T02:34:45;-1.70;99.90
52415;DHT22;38340;52.964;6.086;2022-11-20T02:37:11;-1.70;99.90
52415;DHT22;38340;52.964;6.086;2022-11-20T02:39:37;-1.70;99.90
52415;DHT22;38340;52.964;6.086;2022-11-20T02:42:02;-1.60;99.90
52415;DHT22;38340;52.964;6.086;2022-11-20T02:44:28;-1.60;99.90
52415;DHT22;38340;52.964;6.086;2022-11-20T02:46:57;-1.60;99.90
52415;DHT22;38340;52.964;6.086;2022-11-20T02:49:22;-1.60;99.90
52415;DHT22;38340;52.964;6.086;2022-11-20T02:51:48;-1.50;99.90
52415;DHT22;38340;52.964;6.086;2022-11-20T02:54:14;-1.50;99.90
52415;DHT22;38340;52.964;6.086;2022-11-20T02:56:39;-1.50;99.90
52415;DHT22;38340;52.964;6.086;2022-11-20T02:59:06;-1.40;99.90
52415;DHT22;38340;52.964;6.086;2022-11-20T03:01:31;-1.40;99.90
52415;DHT22;38340;52.964;6.086;2022-11-20T03:03:57;-1.40;99.90
52415;DHT22;38340;52.964;6.086;2022-11-20T03:06:23;-1.30;99.90
52415;DHT22;38340;52.964;6.086;2022-11-20T03:08:49;-1.40;99.90
52415;DHT22;38340;52.964;6.086;2022-11-20T03:11:14;-1.40;99.90
52415;DHT22;38340;52.964;6.086;2022-11-20T03:13:40;-1.40;99.90
52415;DHT22;38340;52.964;6.086;2022-11-20T03:16:15;-1.30;99.90
52415;DHT22;38340;52.964;6.086;2022-11-20T03:18:41;-1.40;99.90
52415;DHT22;38340;52.964;6.086;2022-11-20T03:21:08;-1.40;99.90
52415;DHT22;38340;52.964;6.086;2022-11-20T03:23:34;-1.30;99.90
52415;DHT22;38340;52.964;6.086;2022-11-20T03:26:11;-1.30;99.90
52415;DHT22;38340;52.964;6.086;2022-11-20T03:28:37;-1.30;99.90
52415;DHT22;38340;52.964;6.086;2022-11-20T03:31:12;-1.30;99.90
52415;DHT22;38340;52.964;6.086;2022-11-20T03:33:39;-1.30;99.90
52415;DHT22;38340;52.964;6.086;2022-11-20T03:36:08;-1.30;99.90
52415;DHT22;38340;52.964;6.086;2022-11-20T03:38:34;-1.30;99.90
52415;DHT22;38340;52.964;6.086;2022-11-20T03:41:01;-1.40;99.90
52415;DHT22;38340;52.964;6.086;2022-11-20T03:43:28;-1.30;99.90
52415;DHT22;38340;52.964;6.086;2022-11-20T03:45:54;-1.40;99.90
52415;DHT22;38340;52.964;6.086;2022-11-20T03:48:19;-1.40;99.90
52415;DHT22;38340;52.964;6.086;2022-11-20T03:50:45;-1.40;99.90
52415;DHT22;38340;52.964;6.086;2022-11-20T03:53:13;-1.40;99.90
52415;DHT22;38340;52.964;6.086;2022-11-20T03:55:39;-1.40;99.90
52415;DHT22;38340;52.964;6.086;2022-11-20T03:58:05;-1.40;99.90
52415;DHT22;38340;52.964;6.086;2022-11-20T04:00:30;-1.40;99.90
52415;DHT22;38340;52.964;6.086;2022-11-20T04:03:02;-1.50;99.90
52415;DHT22;38340;52.964;6.086;2022-11-20T04:05:28;-1.50;99.90
52415;DHT22;38340;52.964;6.086;2022-11-20T04:07:54;-1.60;99.90
52415;DHT22;38340;52.964;6.086;2022-11-20T04:10:20;-1.60;99.90
52415;DHT22;38340;52.964;6.086;2022-11-20T04:12:45;-1.70;99.90
52415;DHT22;38340;52.964;6.086;2022-11-20T04:15:11;-1.70;99.90
52415;DHT22;38340;52.964;6.086;2022-11-20T04:17:37;-1.60;99.90
52415;DHT22;38340;52.964;6.086;2022-11-20T04:20:03;-1.60;99.90
52415;DHT22;38340;52.964;6.086;2022-11-20T04:22:28;-1.60;99.90
52415;DHT22;38340;52.964;6.086;2022-11-20T04:24:54;-1.50;99.90
52415;DHT22;38340;52.964;6.086;2022-11-20T04:27:20;-1.50;99.90
52415;DHT22;38340;52.964;6.086;2022-11-20T04:29:46;-1.50;99.90
52415;DHT22;38340;52.964;6.086;2022-11-20T04:32:12;-1.50;99.90
52415;DHT22;38340;52.964;6.086;2022-11-20T04:34:38;-1.50;99.90
52415;DHT22;38340;52.964;6.086;2022-11-20T04:37:03;-1.50;99.90
52415;DHT22;38340;52.964;6.086;2022-11-20T04:39:29;-1.40;99.90
52415;DHT22;38340;52.964;6.086;2022-11-20T04:41:55;-1.40;99.90
52415;DHT22;38340;52.964;6.086;2022-11-20T04:44:39;-1.40;99.90
52415;DHT22;38340;52.964;6.086;2022-11-20T04:47:05;-1.40;99.90
52415;DHT22;38340;52.964;6.086;2022-11-20T04:49:31;-1.40;99.90
52415;DHT22;38340;52.964;6.086;2022-11-20T04:51:58;-1.40;99.90
52415;DHT22;38340;52.964;6.086;2022-11-20T04:54:23;-1.40;99.90
52415;DHT22;38340;52.964;6.086;2022-11-20T04:56:50;-1.50;99.90
52415;DHT22;38340;52.964;6.086;2022-11-20T04:59:15;-1.60;99.90
52415;DHT22;38340;52.964;6.086;2022-11-20T05:01:41;-1.50;99.90
52415;DHT22;38340;52.964;6.086;2022-11-20T05:04:07;-1.50;99.90
52415;DHT22;38340;52.964;6.086;2022-11-20T05:06:33;-1.60;99.90
52415;DHT22;38340;52.964;6.086;2022-11-20T05:08:59;-1.70;99.90
52415;DHT22;38340;52.964;6.086;2022-11-20T05:11:25;-1.70;99.90
52415;DHT22;38340;52.964;6.086;2022-11-20T05:13:51;-1.80;99.90
52415;DHT22;38340;52.964;6.086;2022-11-20T05:16:22;-1.80;99.90
52415;DHT22;38340;52.964;6.086;2022-11-20T05:18:48;-1.80;99.90
52415;DHT22;38340;52.964;6.086;2022-11-20T05:21:15;-1.70;99.90
52415;DHT22;38340;52.964;6.086;2022-11-20T05:23:42;-1.70;99.90
52415;DHT22;38340;52.964;6.086;2022-11-20T05:26:13;-1.80;99.90
52415;DHT22;38340;52.964;6.086;2022-11-20T05:28:39;-1.80;99.90
52415;DHT22;38340;52.964;6.086;2022-11-20T05:31:16;-1.90;99.90
52415;DHT22;38340;52.964;6.086;2022-11-20T05:33:44;-1.90;99.90
52415;DHT22;38340;52.964;6.086;2022-11-20T05:36:11;-1.90;99.90
52415;DHT22;38340;52.964;6.086;2022-11-20T05:38:38;-1.90;99.90
52415;DHT22;38340;52.964;6.086;2022-11-20T05:43:34;-1.90;99.90
52415;DHT22;38340;52.964;6.086;2022-11-20T05:46:00;-1.80;99.90
52415;DHT22;38340;52.964;6.086;2022-11-20T05:48:26;-1.80;99.90
52415;DHT22;38340;52.964;6.086;2022-11-20T05:50:52;-1.80;99.90
52415;DHT22;38340;52.964;6.086;2022-11-20T05:53:18;-1.80;99.90
52415;DHT22;38340;52.964;6.086;2022-11-20T05:55:43;-1.80;99.90
52415;DHT22;38340;52.964;6.086;2022-11-20T05:58:09;-1.70;99.90
52415;DHT22;38340;52.964;6.086;2022-11-20T06:00:35;-1.80;99.90
52415;DHT22;38340;52.964;6.086;2022-11-20T06:03:01;-1.80;99.90
52415;DHT22;38340;52.964;6.086;2022-11-20T06:05:26;-1.90;99.90
52415;DHT22;38340;52.964;6.086;2022-11-20T06:07:52;-1.90;99.90
52415;DHT22;38340;52.964;6.086;2022-11-20T06:10:18;-1.90;99.90
52415;DHT22;38340;52.964;6.086;2022-11-20T06:12:43;-1.90;99.90
52415;DHT22;38340;52.964;6.086;2022-11-20T06:15:09;-1.90;99.90
52415;DHT22;38340;52.964;6.086;2022-11-20T06:17:35;-1.80;99.90
52415;DHT22;38340;52.964;6.086;2022-11-20T06:20:01;-1.80;99.90
52415;DHT22;38340;52.964;6.086;2022-11-20T06:22:26;-1.70;99.90
52415;DHT22;38340;52.964;6.086;2022-11-20T06:24:52;-1.70;99.90
52415;DHT22;38340;52.964;6.086;2022-11-20T06:27:18;-1.70;99.90
52415;DHT22;38340;52.964;6.086;2022-11-20T06:29:43;-1.70;99.90
52415;DHT22;38340;52.964;6.086;2022-11-20T06:32:09;-1.60;99.90
52415;DHT22;38340;52.964;6.086;2022-11-20T06:34:35;-1.60;99.90
52415;DHT22;38340;52.964;6.086;2022-11-20T06:37:00;-1.50;99.90
52415;DHT22;38340;52.964;6.086;2022-11-20T06:39:26;-1.50;99.90
52415;DHT22;38340;52.964;6.086;2022-11-20T06:41:52;-1.50;99.90
52415;DHT22;38340;52.964;6.086;2022-11-20T06:44:17;-1.40;99.90
52415;DHT22;38340;52.964;6.086;2022-11-20T06:46:43;-1.40;99.90
52415;DHT22;38340;52.964;6.086;2022-11-20T06:49:09;-1.30;99.90
52415;DHT22;38340;52.964;6.086;2022-11-20T06:51:34;-1.30;99.90
52415;DHT22;38340;52.964;6.086;2022-11-20T06:54:00;-1.30;99.90
52415;DHT22;38340;52.964;6.086;2022-11-20T06:56:26;-1.30;99.90
52415;DHT22;38340;52.964;6.086;2022-11-20T06:58:52;-1.30;99.90
52415;DHT22;38340;52.964;6.086;2022-11-20T07:01:18;-1.30;99.90
52415;DHT22;38340;52.964;6.086;2022-11-20T07:03:43;-1.40;99.90
52415;DHT22;38340;52.964;6.086;2022-11-20T07:06:10;-1.30;99.90
52415;DHT22;38340;52.964;6.086;2022-11-20T07:08:36;-1.30;99.90
52415;DHT22;38340;52.964;6.086;2022-11-20T07:11:04;-1.30;99.90
52415;DHT22;38340;52.964;6.086;2022-11-20T07:13:31;-1.30;99.90
52415;DHT22;38340;52.964;6.086;2022-11-20T07:16:05;-1.30;99.90
52415;DHT22;38340;52.964;6.086;2022-11-20T07:18:31;-1.20;99.90
52415;DHT22;38340;52.964;6.086;2022-11-20T07:21:00;-1.20;99.90
52415;DHT22;38340;52.964;6.086;2022-11-20T07:23:26;-1.20;99.90
52415;DHT22;38340;52.964;6.086;2022-11-20T07:25:51;-1.30;99.90
52415;DHT22;38340;52.964;6.086;2022-11-20T07:28:17;-1.20;99.90
52415;DHT22;38340;52.964;6.086;2022-11-20T07:30:43;-1.20;99.90
52415;DHT22;38340;52.964;6.086;2022-11-20T07:33:14;-1.20;99.90
52415;DHT22;38340;52.964;6.086;2022-11-20T07:35:40;-1.20;99.90
52415;DHT22;38340;52.964;6.086;2022-11-20T07:38:05;-1.30;99.90
52415;DHT22;38340;52.964;6.086;2022-11-20T07:40:31;-1.20;99.90
52415;DHT22;38340;52.964;6.086;2022-11-20T07:42:56;-1.30;99.90
52415;DHT22;38340;52.964;6.086;2022-11-20T07:45:23;-1.30;99.90
52415;DHT22;38340;52.964;6.086;2022-11-20T07:47:49;-1.40;99.90
52415;DHT22;38340;52.964;6.086;2022-11-20T07:50:15;-1.40;99.90
52415;DHT22;38340;52.964;6.086;2022-11-20T07:52:42;-1.40;99.90
52415;DHT22;38340;52.964;6.086;2022-11-20T07:55:08;-1.50;99.90
52415;DHT22;38340;52.964;6.086;2022-11-20T07:57:34;-1.40;99.90
52415;DHT22;38340;52.964;6.086;2022-11-20T08:00:00;-1.40;99.90
52415;DHT22;38340;52.964;6.086;2022-11-20T08:02:26;-1.40;99.90
52415;DHT22;38340;52.964;6.086;2022-11-20T08:04:51;-1.30;99.90
52415;DHT22;38340;52.964;6.086;2022-11-20T08:07:17;-1.30;99.90
52415;DHT22;38340;52.964;6.086;2022-11-20T08:09:43;-1.30;99.90
52415;DHT22;38340;52.964;6.086;2022-11-20T08:12:17;-1.20;99.90
52415;DHT22;38340;52.964;6.086;2022-11-20T08:15:03;-1.20;99.90
52415;DHT22;38340;52.964;6.086;2022-11-20T08:17:29;-1.20;99.90
52415;DHT22;38340;52.964;6.086;2022-11-20T08:19:54;-1.10;99.90
52415;DHT22;38340;52.964;6.086;2022-11-20T08:22:20;-1.00;99.90
52415;DHT22;38340;52.964;6.086;2022-11-20T08:24:46;-1.00;99.90
52415;DHT22;38340;52.964;6.086;2022-11-20T08:27:11;-0.90;99.90
52415;DHT22;38340;52.964;6.086;2022-11-20T08:29:37;-0.80;99.90
52415;DHT22;38340;52.964;6.086;2022-11-20T08:32:03;-0.70;99.90
52415;DHT22;38340;52.964;6.086;2022-11-20T08:34:29;-0.60;99.90
52415;DHT22;38340;52.964;6.086;2022-11-20T08:36:54;-0.60;99.90
52415;DHT22;38340;52.964;6.086;2022-11-20T08:39:20;-0.50;99.90
52415;DHT22;38340;52.964;6.086;2022-11-20T08:41:45;-0.50;99.90
52415;DHT22;38340;52.964;6.086;2022-11-20T08:44:11;-0.40;99.90
52415;DHT22;38340;52.964;6.086;2022-11-20T08:46:39;-0.30;99.90
52415;DHT22;38340;52.964;6.086;2022-11-20T08:49:08;-0.30;99.90
52415;DHT22;38340;52.964;6.086;2022-11-20T08:51:34;-0.30;99.90
52415;DHT22;38340;52.964;6.086;2022-11-20T08:54:00;-0.20;99.90
52415;DHT22;38340;52.964;6.086;2022-11-20T08:56:25;-0.10;99.90
52415;DHT22;38340;52.964;6.086;2022-11-20T08:58:51;0.00;99.90
52415;DHT22;38340;52.964;6.086;2022-11-20T09:01:19;0.00;99.90
52415;DHT22;38340;52.964;6.086;2022-11-20T09:03:45;0.10;99.90
52415;DHT22;38340;52.964;6.086;2022-11-20T09:06:11;0.20;99.90
52415;DHT22;38340;52.964;6.086;2022-11-20T09:08:37;0.20;99.90
52415;DHT22;38340;52.964;6.086;2022-11-20T09:11:03;0.30;99.90
52415;DHT22;38340;52.964;6.086;2022-11-20T09:13:30;0.30;99.90
52415;DHT22;38340;52.964;6.086;2022-11-20T09:16:07;0.40;99.90
52415;DHT22;38340;52.964;6.086;2022-11-20T09:18:33;0.30;99.90
52415;DHT22;38340;52.964;6.086;2022-11-20T09:21:04;0.40;99.90
52415;DHT22;38340;52.964;6.086;2022-11-20T09:23:35;0.40;99.90
52415;DHT22;38340;52.964;6.086;2022-11-20T09:26:11;0.50;99.90
52415;DHT22;38340;52.964;6.086;2022-11-20T09:28:37;0.60;99.90
52415;DHT22;38340;52.964;6.086;2022-11-20T09:31:06;0.60;99.90
52415;DHT22;38340;52.964;6.086;2022-11-20T09:33:33;0.70;99.90
52415;DHT22;38340;52.964;6.086;2022-11-20T09:35:58;0.80;99.90
52415;DHT22;38340;52.964;6.086;2022-11-20T09:38:24;0.90;99.90
52415;DHT22;38340;52.964;6.086;2022-11-20T09:41:10;1.00;99.90
52415;DHT22;38340;52.964;6.086;2022-11-20T09:46:52;1.00;99.90
52415;DHT22;38340;52.964;6.086;2022-11-20T09:54:52;1.20;99.90
52415;DHT22;38340;52.964;6.086;2022-11-20T09:57:22;1.20;99.90
52415;DHT22;38340;52.964;6.086;2022-11-20T09:59:55;1.30;99.90
52415;DHT22;38340;52.964;6.086;2022-11-20T10:02:33;1.30;99.90
52415;DHT22;38340;52.964;6.086;2022-11-20T10:05:18;1.40;99.90
52415;DHT22;38340;52.964;6.086;2022-11-20T10:10:46;1.50;99.90
52415;DHT22;38340;52.964;6.086;2022-11-20T10:21:11;1.60;99.90
52415;DHT22;38340;52.964;6.086;2022-11-20T10:29:15;1.70;99.90
52415;DHT22;38340;52.964;6.086;2022-11-20T10:31:52;2.00;99.90
52415;DHT22;38340;52.964;6.086;2022-11-20T10:34:34;2.10;99.90
52415;DHT22;38340;52.964;6.086;2022-11-20T10:37:13;2.20;99.90
52415;DHT22;38340;52.964;6.086;2022-11-20T10:39:51;2.30;99.90
52415;DHT22;38340;52.964;6.086;2022-11-20T10:42:41;2.40;99.90
52415;DHT22;38340;52.964;6.086;2022-11-20T10:50:39;2.40;99.90
52415;DHT22;38340;52.964;6.086;2022-11-20T10:53:13;2.50;99.90
52415;DHT22;38340;52.964;6.086;2022-11-20T10:56:00;2.60;99.90
52415;DHT22;38340;52.964;6.086;2022-11-20T10:58:48;2.70;99.90
52415;DHT22;38340;52.964;6.086;2022-11-20T11:01:21;2.70;99.90
52415;DHT22;38340;52.964;6.086;2022-11-20T11:03:52;2.80;99.90
52415;DHT22;38340;52.964;6.086;2022-11-20T11:06:42;2.80;99.90
52415;DHT22;38340;52.964;6.086;2022-11-20T11:09:21;2.80;99.90
52415;DHT22;38340;52.964;6.086;2022-11-20T11:11:49;2.90;99.90
52415;DHT22;38340;52.964;6.086;2022-11-20T11:14:15;2.90;99.90
52415;DHT22;38340;52.964;6.086;2022-11-20T11:16:56;2.90;99.90
52415;DHT22;38340;52.964;6.086;2022-11-20T11:19:23;2.90;99.90
52415;DHT22;38340;52.964;6.086;2022-11-20T11:21:54;2.80;99.90
52415;DHT22;38340;52.964;6.086;2022-11-20T11:24:28;2.90;99.90
52415;DHT22;38340;52.964;6.086;2022-11-20T11:27:02;2.90;99.90
52415;DHT22;38340;52.964;6.086;2022-11-20T11:29:32;3.00;99.90
52415;DHT22;38340;52.964;6.086;2022-11-20T11:32:17;3.00;99.90
52415;DHT22;38340;52.964;6.086;2022-11-20T11:34:43;3.10;99.90
52415;DHT22;38340;52.964;6.086;2022-11-20T11:37:18;3.20;99.90
52415;DHT22;38340;52.964;6.086;2022-11-20T11:39:46;3.20;99.90
52415;DHT22;38340;52.964;6.086;2022-11-20T11:42:17;3.30;99.90
52415;DHT22;38340;52.964;6.086;2022-11-20T11:44:47;3.30;99.90
52415;DHT22;38340;52.964;6.086;2022-11-20T11:47:47;3.40;99.90
52415;DHT22;38340;52.964;6.086;2022-11-20T11:50:27;3.40;99.90
52415;DHT22;38340;52.964;6.086;2022-11-20T11:55:42;3.40;99.90
52415;DHT22;38340;52.964;6.086;2022-11-20T12:03:38;3.30;99.90
52415;DHT22;38340;52.964;6.086;2022-11-20T12:06:12;3.30;99.90
52415;DHT22;38340;52.964;6.086;2022-11-20T12:09:02;3.20;99.90
52415;DHT22;38340;52.964;6.086;2022-11-20T12:11:37;3.20;99.90
52415;DHT22;38340;52.964;6.086;2022-11-20T12:14:26;3.20;99.90
52415;DHT22;38340;52.964;6.086;2022-11-20T12:16:56;3.10;99.90
52415;DHT22;38340;52.964;6.086;2022-11-20T12:19:23;3.10;99.90
52415;DHT22;38340;52.964;6.086;2022-11-20T12:28:03;3.20;99.90
52415;DHT22;38340;52.964;6.086;2022-11-20T12:30:32;3.20;99.90
52415;DHT22;38340;52.964;6.086;2022-11-20T12:45:12;3.00;99.90
52415;DHT22;38340;52.964;6.086;2022-11-20T12:47:36;3.00;99.90
52415;DHT22;38340;52.964;6.086;2022-11-20T12:55:36;3.00;99.90
52415;DHT22;38340;52.964;6.086;2022-11-20T13:06:50;3.00;99.90
52415;DHT22;38340;52.964;6.086;2022-11-20T13:09:19;3.10;99.90
52415;DHT22;38340;52.964;6.086;2022-11-20T13:11:48;3.10;99.90
52415;DHT22;38340;52.964;6.086;2022-11-20T13:14:35;3.10;99.90
52415;DHT22;38340;52.964;6.086;2022-11-20T13:17:17;3.10;99.90
52415;DHT22;38340;52.964;6.086;2022-11-20T13:19:52;3.10;99.90
52415;DHT22;38340;52.964;6.086;2022-11-20T13:22:26;3.10;99.90
52415;DHT22;38340;52.964;6.086;2022-11-20T13:24:52;3.10;99.90
52415;DHT22;38340;52.964;6.086;2022-11-20T13:27:21;3.10;99.90
52415;DHT22;38340;52.964;6.086;2022-11-20T13:30:10;3.10;99.90
52415;DHT22;38340;52.964;6.086;2022-11-20T13:32:51;3.10;99.90
52415;DHT22;38340;52.964;6.086;2022-11-20T13:35:33;3.10;99.90
52415;DHT22;38340;52.964;6.086;2022-11-20T13:38:14;3.10;99.90
52415;DHT22;38340;52.964;6.086;2022-11-20T13:41:00;3.10;99.90
52415;DHT22;38340;52.964;6.086;2022-11-20T13:43:47;3.00;99.90
52415;DHT22;38340;52.964;6.086;2022-11-20T13:46:13;3.00;99.90
52415;DHT22;38340;52.964;6.086;2022-11-20T13:48:45;3.00;99.90
52415;DHT22;38340;52.964;6.086;2022-11-20T13:51:33;3.00;99.90
52415;DHT22;38340;52.964;6.086;2022-11-20T13:54:27;2.90;99.90
52415;DHT22;38340;52.964;6.086;2022-11-20T14:02:20;2.90;99.90
52415;DHT22;38340;52.964;6.086;2022-11-20T14:04:49;2.80;99.90
52415;DHT22;38340;52.964;6.086;2022-11-20T14:07:17;2.80;99.90
52415;DHT22;38340;52.964;6.086;2022-11-20T14:10:03;2.80;99.90
52415;DHT22;38340;52.964;6.086;2022-11-20T14:12:32;2.70;99.90
52415;DHT22;38340;52.964;6.086;2022-11-20T14:14:58;2.70;99.90
52415;DHT22;38340;52.964;6.086;2022-11-20T14:17:29;2.70;99.90
52415;DHT22;38340;52.964;6.086;2022-11-20T14:19:59;2.70;99.90
52415;DHT22;38340;52.964;6.086;2022-11-20T14:22:27;2.60;99.90
52415;DHT22;38340;52.964;6.086;2022-11-20T14:27:43;2.60;99.90
52415;DHT22;38340;52.964;6.086;2022-11-20T14:30:23;2.60;99.90
52415;DHT22;38340;52.964;6.086;2022-11-20T14:32:51;2.60;99.90
52415;DHT22;38340;52.964;6.086;2022-11-20T14:35:25;2.60;99.90
52415;DHT22;38340;52.964;6.086;2022-11-20T14:37:52;2.60;99.90
52415;DHT22;38340;52.964;6.086;2022-11-20T14:40:32;2.50;99.90
52415;DHT22;38340;52.964;6.086;2022-11-20T14:43:01;2.50;99.90
52415;DHT22;38340;52.964;6.086;2022-11-20T14:45:27;2.50;99.90
52415;DHT22;38340;52.964;6.086;2022-11-20T14:47:56;2.50;99.90
52415;DHT22;38340;52.964;6.086;2022-11-20T14:50:27;2.40;99.90
52415;DHT22;38340;52.964;6.086;2022-11-20T14:52:56;2.40;99.90
52415;DHT22;38340;52.964;6.086;2022-11-20T14:55:33;2.40;99.90
52415;DHT22;38340;52.964;6.086;2022-11-20T14:58:01;2.40;99.90
52415;DHT22;38340;52.964;6.086;2022-11-20T15:00:28;2.30;99.90
52415;DHT22;38340;52.964;6.086;2022-11-20T15:02:54;2.40;99.90
52415;DHT22;38340;52.964;6.086;2022-11-20T15:05:23;2.30;99.90
52415;DHT22;38340;52.964;6.086;2022-11-20T15:08:07;2.30;99.90
52415;DHT22;38340;52.964;6.086;2022-11-20T15:10:34;2.30;99.90
52415;DHT22;38340;52.964;6.086;2022-11-20T15:13:05;2.30;99.90
52415;DHT22;38340;52.964;6.086;2022-11-20T15:15:54;2.30;99.90
52415;DHT22;38340;52.964;6.086;2022-11-20T15:18:28;2.30;99.90
52415;DHT22;38340;52.964;6.086;2022-11-20T15:20:55;2.30;99.90
52415;DHT22;38340;52.964;6.086;2022-11-20T15:23:22;2.30;99.90
52415;DHT22;38340;52.964;6.086;2022-11-20T15:25:48;2.30;99.90
52415;DHT22;38340;52.964;6.086;2022-11-20T15:30:55;2.20;99.90
52415;DHT22;38340;52.964;6.086;2022-11-20T15:33:22;2.20;99.90
52415;DHT22;38340;52.964;6.086;2022-11-20T15:35:47;2.20;99.90
52415;DHT22;38340;52.964;6.086;2022-11-20T15:38:13;2.20;99.90
52415;DHT22;38340;52.964;6.086;2022-11-20T15:40:39;2.20;99.90
52415;DHT22;38340;52.964;6.086;2022-11-20T15:43:05;2.10;99.90
52415;DHT22;38340;52.964;6.086;2022-11-20T15:45:44;2.10;99.90
52415;DHT22;38340;52.964;6.086;2022-11-20T15:48:23;2.10;99.90
52415;DHT22;38340;52.964;6.086;2022-11-20T15:53:29;2.10;99.90
52415;DHT22;38340;52.964;6.086;2022-11-20T15:55:54;2.10;99.90
52415;DHT22;38340;52.964;6.086;2022-11-20T15:58:20;2.10;99.90
52415;DHT22;38340;52.964;6.086;2022-11-20T16:00:48;2.10;99.90
52415;DHT22;38340;52.964;6.086;2022-11-20T16:03:15;2.20;99.90
52415;DHT22;38340;52.964;6.086;2022-11-20T16:05:41;2.10;99.90
52415;DHT22;38340;52.964;6.086;2022-11-20T16:08:07;2.10;99.90
52415;DHT22;38340;52.964;6.086;2022-11-20T16:10:32;2.10;99.90
52415;DHT22;38340;52.964;6.086;2022-11-20T16:12:58;2.10;99.90
52415;DHT22;38340;52.964;6.086;2022-11-20T16:15:45;2.10;99.90
52415;DHT22;38340;52.964;6.086;2022-11-20T16:18:15;2.10;99.90
52415;DHT22;38340;52.964;6.086;2022-11-20T16:20:40;2.10;99.90
52415;DHT22;38340;52.964;6.086;2022-11-20T16:23:07;2.10;99.90
52415;DHT22;38340;52.964;6.086;2022-11-20T16:25:33;2.10;99.90
52415;DHT22;38340;52.964;6.086;2022-11-20T16:27:59;2.10;99.90
52415;DHT22;38340;52.964;6.086;2022-11-20T16:30:24;2.10;99.90
52415;DHT22;38340;52.964;6.086;2022-11-20T16:32:50;2.10;99.90
52415;DHT22;38340;52.964;6.086;2022-11-20T16:35:16;2.10;99.90
52415;DHT22;38340;52.964;6.086;2022-11-20T16:37:42;2.10;99.90
52415;DHT22;38340;52.964;6.086;2022-11-20T16:40:10;2.10;99.90
52415;DHT22;38340;52.964;6.086;2022-11-20T16:42:36;2.20;99.90
52415;DHT22;38340;52.964;6.086;2022-11-20T16:45:03;2.20;99.90
52415;DHT22;38340;52.964;6.086;2022-11-20T16:47:33;2.20;99.90
52415;DHT22;38340;52.964;6.086;2022-11-20T16:49:59;2.20;99.90
52415;DHT22;38340;52.964;6.086;2022-11-20T16:52:25;2.20;99.90
52415;DHT22;38340;52.964;6.086;2022-11-20T16:54:50;2.30;99.90
52415;DHT22;38340;52.964;6.086;2022-11-20T16:57:16;2.40;99.90
52415;DHT22;38340;52.964;6.086;2022-11-20T16:59:42;2.40;99.90
52415;DHT22;38340;52.964;6.086;2022-11-20T17:02:09;2.40;99.90
52415;DHT22;38340;52.964;6.086;2022-11-20T17:04:35;2.40;99.90
52415;DHT22;38340;52.964;6.086;2022-11-20T17:07:01;2.40;99.90
52415;DHT22;38340;52.964;6.086;2022-11-20T17:09:28;2.40;99.90
52415;DHT22;38340;52.964;6.086;2022-11-20T17:11:53;2.40;99.90
52415;DHT22;38340;52.964;6.086;2022-11-20T17:14:19;2.40;99.90
52415;DHT22;38340;52.964;6.086;2022-11-20T17:16:45;2.30;99.90
52415;DHT22;38340;52.964;6.086;2022-11-20T17:19:11;2.30;99.90
52415;DHT22;38340;52.964;6.086;2022-11-20T17:21:37;2.30;99.90